Delta, Utah Weather observations

Data are for observation ending at time listed.
 Day   Time    Ave.   Ave.  Ave.  Vector   Max.   Stn.    Total    Solar   Ave.  
  of    of     Air    Rel.  Wind   Wind    Wind   Baro.  Precip.   Rad.    Soil  
Year   Day     Temp.  Hum.  Speed  Dir.    Gust   Pres.                    Temp. 
2016   (MST)    F      %     mph   deg.    mph     mb.     in.     W/m2     F   
------------------------------------------------------------------------------
 124    1:40   45.0    73    0.0     0      0.0   864.3    0.00       0    59.6
 124    1:50   44.6    73    1.1   351      3.1   864.3    0.00       0    59.5
 124    2:00   44.3    75    0.8     1      2.2   864.3    0.00       0    59.3
 124    2:10   44.1    75    0.2     3      1.4   864.4    0.00       0    59.2
 124    2:20   43.9    76    0.2     5      1.2   864.3    0.00       0    59.1
 124    2:30   43.9    76    0.2   342      1.6   864.4    0.00       0    59.1
 124    2:40   44.1    75    0.9   335      1.9   864.4    0.00       0    59.0
 124    2:50   43.9    74    0.8   359      2.4   864.4    0.00       0    59.2
 124    3:00   44.0    74    1.0     4      2.0   864.5    0.00       0    58.9
 124    3:10   44.1    74    0.1    58      1.4   864.5    0.00       0    58.8
 124    3:20   44.7    72    0.0     0      0.0   864.6    0.00       0    58.7
 124    3:30   44.8    71    0.2   331      3.1   864.7    0.00       0    58.5
 124    3:40   44.2    71    1.7   350      3.1   864.7    0.00       0    58.3
 124    3:50   42.9    72    2.1   343      3.3   864.8    0.00       0    58.5
 124    4:00   41.9    74    1.1   328      1.9   864.8    0.00       0    58.4
 124    4:10   41.9    75    1.3   336      2.6   864.8    0.00       0    58.2
 124    4:20   42.1    74    1.2   347      3.0   864.7    0.00       0    57.9
 124    4:30   41.9    75    0.3     1      1.6   864.8    0.00       0    58.1
 124    4:40   41.5    76    0.4     5      1.5   864.8    0.00       0    58.0
 124    4:50   41.2    77    0.1    10      1.4   864.8    0.00       0    57.9
 124    5:00   41.0    78    0.0     0      0.0   864.9    0.00       0    57.8
 124    5:10   41.3    80    0.2    10      0.9   864.9    0.00       0    58.1
 124    5:20   41.3    80    0.0     0      0.0   865.0    0.00       0    57.7
 124    5:30   41.3    81    0.0     0      0.0   865.1    0.00       2    57.4
 124    5:40   40.9    81    0.0    10      0.5   865.2    0.00       4    57.8
 124    5:50   41.1    81    0.6   195      1.7   865.2    0.00       8    57.5
 124    6:00   41.4    81    0.0     0      0.0   865.4    0.00      13    57.2
 124    6:10   41.7    81    0.1    99      0.9   865.5    0.00      19    57.3
 124    6:20   42.2    79    1.2     9      1.6   865.6    0.00      24    57.1
 124    6:30   42.9    78    0.8     6      1.5   865.7    0.00      32    57.1
 124    6:40   43.9    77    0.0     0      0.0   865.8    0.00     118    57.0
 124    6:50   46.5    71    0.8   173      1.8   865.9    0.00     165    56.8
 124    7:00   47.6    64    1.4   181      2.4   865.9    0.00     193    56.8
 124    7:10   48.2    63    1.1   178      2.9   865.9    0.00     221    56.7
 124    7:20   48.6    63    1.3   165      3.3   865.9    0.00     249    56.8
 124    7:30   49.7    62    1.1   181      2.0   866.0    0.00     277    56.6
 124    7:40   51.5    60    0.6   153      1.7   866.0    0.00     304    56.9
 124    7:50   52.1    57    0.8   310      2.0   866.1    0.00     331    56.8
 124    8:00   53.3    56    0.4   197      1.6   866.1    0.00     358    56.7
 124    8:10   53.7    57    1.3   261      2.3   866.2    0.00     387    56.8
 124    8:20   54.3    55    0.9   301      3.4   866.2    0.00     413    56.9
 124    8:30   55.6    54    1.3   224      2.8   866.1    0.00     439    56.8
 124    8:40   55.3    53    1.4   222      2.6   866.1    0.00     466    56.9
 124    8:50   56.1    52    1.2   214      2.6   866.2    0.00     493    57.0
 124    9:00   57.6    50    1.1   229      2.3   866.2    0.00     519    57.0
 124    9:10   57.6    48    2.2   230      3.9   866.2    0.00     543    57.2
 124    9:20   58.4    48    1.7   201      4.3   866.2    0.00     566    57.3
 124    9:30   59.4    44    1.3   348      3.4   866.2    0.00     588    57.3
 124    9:40   59.6    47    1.9   153      3.9   866.2    0.00     608    57.5
 124    9:50   61.2    45    1.6   158      3.9   866.2    0.00     629    57.4
 124   10:00   62.0    42    1.4   127      3.9   866.1    0.00     647    57.8
 124   10:10   62.6    40    2.0   124      4.1   866.2    0.00     664    57.8
 124   10:20   62.4    38    2.5   156      6.9   866.1    0.00     681    58.0
 124   10:30   64.1    34    1.2   321      3.9   866.0    0.00     698    58.3
 124   10:40   64.8    34    1.5    44      5.4   866.0    0.00     713    58.3
 124   10:50   65.7    32    1.7   314      5.1   866.0    0.00     724    58.6
 124   11:00   66.3    30    3.0   357      8.8   865.9    0.00     733    58.7
 124   11:10   65.6    30    2.1   299      4.2   865.9    0.00     739    59.1
 124   11:20   66.7    28    2.3   323      7.5   865.8    0.00     750    59.2
 124   11:30   66.8    27    3.0   294      6.9   865.7    0.00     756    59.4
 124   11:40   67.0    27    2.0    71      4.5   865.7    0.00     764    59.6
 124   11:50   67.2    25    3.1   306      8.6   865.6    0.00     768    60.0
 124   12:00   67.3    26    2.6   275      5.6   865.5    0.00     770    60.2
 124   12:10   67.5    24    3.3   321      6.9   865.4    0.00     773    60.5
 124   12:20   68.0    24    2.4   233      5.5   865.2    0.00     776    60.7
 124   12:30   67.8    24    3.1   251      7.2   865.1    0.00     778    60.9
 124   12:40   68.6    23    4.0   342      8.0   865.0    0.00     776    61.2
 124   12:50   68.8    22    3.9   326      7.1   865.0    0.00     773    61.5
 124   13:00   68.4    22    3.0    13      6.3   864.9    0.00     771    61.8
 124   13:10   69.1    22    3.6   276      9.8   864.8    0.00     767    62.0
 124   13:20   69.7    22    3.1   263      7.2   864.7    0.00     764    62.3
 124   13:30   69.9    22    3.0   286      6.1   864.6    0.00     754    62.3
 124   13:40   70.4    21    3.9   309      7.6   864.6    0.00     745    62.7
 124   13:50   70.4    20    3.3   305      6.5   864.5    0.00     733    62.9
 124   14:00   70.9    21    1.9   259      6.9   864.3    0.00     724    63.2
 124   14:10   70.6    21    2.9   259      6.9   864.3    0.00     713    63.3
 124   14:20   70.5    20    3.6   282      7.6   864.2    0.00     700    63.6
 124   14:30   70.9    20    2.9   292      6.7   864.0    0.00     685    63.8
 124   14:40   72.1    18    3.3   297      7.8   863.8    0.00     670    63.8
 124   14:50   72.2    19    2.7   275      8.3   863.7    0.00     653    63.8
 124   15:00   72.3    19    3.9   318      8.7   863.6    0.00     635    64.0
 124   15:10   71.9    18    3.0   338      7.1   863.4    0.00     285    64.1
 124   15:20   71.8    18    3.7   271      7.1   863.3    0.00     233    64.2
 124   15:30   72.4    19    4.1   299      7.7   863.1    0.00     573    64.3
 124   15:40   72.8    19    3.4   318      9.3   863.0    0.00     396    64.5
 124   15:50   72.4    19    2.3   303      6.1   862.9    0.00     470    64.8
 124   16:00   72.3    19    3.4   290      6.9   862.8    0.00     504    64.6
 124   16:10   72.4    18    3.6   334      7.0   862.7    0.00     480    64.9
 124   16:20   72.2    18    3.5   360      8.1   862.7    0.00     260    64.9
 124   16:30   72.1    18    3.6   282      7.0   862.6    0.00     391    64.9
 124   16:40   72.6    17    4.2   356      8.8   862.5    0.00     309    65.1
 124   16:50   72.6    18    3.9   323      7.4   862.5    0.00     279    65.1
 124   17:00   72.6    18    4.0   299      9.3   862.4    0.00      41    65.3
 124   17:10   72.5    18    3.7   295      7.2   862.4    0.00     258    64.9
 124   17:20   72.5    18    3.3   302      6.8   862.4    0.00      83    65.1
 124   17:30   72.4    17    3.3   286      6.4   862.3    0.00      97    65.1
 124   17:40   72.7    18    3.0   322      6.2   862.2    0.00     172    65.1
 124   17:50   72.8    18    3.2   318      6.1   862.2    0.00     201    65.1
 124   18:00   72.4    18    3.8   302      6.4   862.1    0.00      34    65.1
 124   18:10   72.1    19    3.8   302      6.6   862.0    0.00      91    64.8
 124   18:20   72.2    19    2.7   296      6.6   862.0    0.00      50    65.2
 124   18:30   72.2    19    2.8   300      5.5   862.0    0.00     114    65.0
 124   18:40   71.8    20    2.3   310      4.7   861.9    0.00      86    64.9
 124   18:50   71.5    20    2.0   305      3.6   861.9    0.00      23    64.8
 124   19:00   70.7    20    1.8   318      3.7   861.9    0.00      15    64.9
 124   19:10   69.7    21    1.7   320      3.8   861.9    0.00      11    65.0
 124   19:20   68.9    22    1.7   325      2.9   861.9    0.00       6    65.0
 124   19:30   67.9    24    1.5   340      3.0   861.9    0.00       3    65.1
 124   19:40   67.0    25    1.2   338      2.0   862.0    0.00       0    65.1
 124   19:50   65.5    26    0.6    17      1.2   862.0    0.00       0    64.8
 124   20:00   64.8    27    0.8    24      2.5   862.0    0.00       0    64.7
 124   20:10   64.6    27    0.7   302      1.8   862.0    0.00       0    64.8
 124   20:20   64.4    28    1.3   291      2.6   862.1    0.00       0    64.6
 124   20:30   63.4    30    1.7   292      2.8   862.3    0.00       0    64.7
 124   20:40   62.7    31    1.3   306      2.4   862.5    0.00       0    64.6
 124   20:50   62.4    29    1.7   321      3.0   862.6    0.00       0    64.5
 124   21:00   62.0    29    2.0   335      3.1   862.7    0.00       0    64.4
 124   21:10   61.5    30    2.1   341      3.1   862.8    0.00       0    64.4
 124   21:20   61.0    31    1.5    18      3.3   862.9    0.00       0    64.2
 124   21:30   59.9    32    2.2    73      4.4   863.0    0.00       0    64.1
 124   21:40   59.3    33    1.6    55      2.9   863.1    0.00       0    64.1
 124   21:50   59.5    33    1.5    14      3.4   863.1    0.00       0    64.1
 124   22:00   60.1    32    0.8     7      1.6   863.0    0.00       0    64.1
 124   22:10   59.3    34    1.6   350      3.4   862.9    0.00       0    64.0
 124   22:20   58.8    35    2.5   340      4.3   862.9    0.00       0    63.8
 124   22:30   57.9    37    2.4   349      3.9   862.8    0.00       0    63.6
 124   22:40   57.8    40    2.6   356      3.8   862.9    0.00       0    63.5
 124   22:50   57.2    44    1.7     0      3.2   862.9    0.00       0    63.6
 124   23:00   57.0    45    1.0   357      2.5   862.9    0.00       0    63.4
 124   23:10   57.0    45    2.1   342      4.5   862.8    0.00       0    63.4
 124   23:20   55.3    48    1.4   321      4.5   862.9    0.00       0    63.2
 124   23:30   53.9    51    1.1   174      3.7   863.1    0.00       0    63.4
 124   23:40   53.3    53    0.7   206      2.6   863.2    0.00       0    63.2
 124   23:50   52.7    56    1.4     2      3.1   863.2    0.00       0    63.0
 125    0:00   52.6    58    0.1   319      1.5   863.2    0.00       0    62.9
 125    0:10   52.5    57    0.5   333      1.7   863.2    0.00       0    63.1
 125    0:20   52.3    57    1.1   346      3.1   863.2    0.00       0    62.7
 125    0:30   51.7    58    0.7     5      2.7   863.2    0.00       0    62.7
 125    0:40   51.1    58    1.9     2      3.0   863.2    0.00       0    62.6
 125    0:50   50.8    58    1.4     2      2.5   863.2    0.00       0    62.5
 125    1:00   50.6    59    1.5   348      3.0   863.2    0.00       0    62.5
 125    1:10   50.2    60    1.7     4      2.9   863.2    0.00       0    62.3
 125    1:20   50.2    61    0.2    10      1.5   863.1    0.00       0    62.4
 125    1:30   50.2    61    0.8   356      1.8   863.1    0.00       0    62.2

Return to Delta, Utah graphs page.


Western Regional Climate Center,wrcc@dri.edu